Bunker Hill, KS (67626)

3:11 AM CST on January 26, 2015 (GMT -0600)
Russell Municipal | Change Station
CLOSE
Current Station
Airport
Location: Russell,
Elevation: 1864 ft
Nearby Weather Stations

Elev 1864 ft 38.87 °N, 98.81 °W | Updated 18 minutes ago

Partly Cloudy
Partly Cloudy
30 °F
Feels Like 19 °F
N
15
Wind Variable Wind from SSW

Today
High -- | Low -- °F
--% Chance of Precip.
Yesterday
High -- | Low -- °F
Precip. -- in
7:45 AM 5:49 PM
Waxing Crescent, 41% visible
Pressure 30.04 in
Visibility 10.0 miles
Clouds Clear
Windchill 19 °F
Dew Point 25 °F
Humidity 80%
Rainfall 0.00 in
Snow Depth Not available.
UV 0 out of 12
Pollen 1.90 out of 12
Air Quality Not available.
Flu Activity Not available.
METAR KRSL 260853Z AUTO 21013KT 10SM CLR M01/M04 A3004

More Conditions Fewer Conditions

Pressure 30.04 in
Visibility 10.0 miles
Clouds Clear
Windchill 19 °F
Dew Point 25 °F
Humidity 80%
Rainfall 0.00 in
Snow Depth Not available.
UV 0 out of 12
Pollen 1.90 out of 12
Air Quality Not available.
Flu Activity Not available.
METAR KRSL 260853Z AUTO 21013KT 10SM CLR M01/M04 A3004

More Conditions Fewer Conditions

10-Day Weather Forecast

Almanac

Astronomy

Jan. 26, 2015 Rise Set
Actual Time
Civil Twilight
Nautical Twilight
Astronomical Twilight
Moon
Length of Visible Light
Length of Day
Tomorrow will be .
, % of the Moon is Illuminated

Today's Extremes

State Highs State Lows

Community

WunderPhotos

Upload Photos

1,790,163 photos uploaded!

WunderBlogs® & News

Nearby

Air Quality

  Air Quality AQ Index Pollutant
Not available.

Snow Depth

Station Depth Elevation

Earthquake Activity

City Distance Mag. Time & Date
Minimum magnitude displayed is 2.5.

Coastal Water Temperatures

Place Temperature

Nearby Weather Stations